Kadena AB

Current Flights

Departures
Number Departure To Airline
Arrivals
Number Arrival From Airline
Info
Name: Kadena AB
Identifier:  DNA/RODN
Local Time:  21. May 03:58
City
Okinawa
  Japan

Flights per Day
1 flights
Distance: 7,114km (4,420mi)
Punctuality
87% (0 flights per day delayed)
Delay Average: 257 minutes
Current Weather
 22 C (Humidity: 68%)
  13kt (24km/h / 14mph) from 360°
  Scattered clouds at 3,200 feet (975 meter)
  Broken clouds at 9,000 feet (2,743 meter)
  16km (10 mi.)
 METAR RODN 201756Z AUTO 36013KT 10SM SCT032 BKN090 22/16 A2975 RMK AO2 SLP080 60000 T02170155 10233 20216 58001 $

Current Delays

Departures
N/A
Arrivals
N/A

Destinations

Top Destinations
Airport Flights
per week
Seats
per week
  Anchorage (ANC) <1 525 0 75
  Anchorage (EDF) <1 - 0 0
  Honolulu (HNL) <1 - 0 0
  Fairfield (SUU) <1 - 0 0
  Houston (HOU) <1 - 0 0
  Iwakuni (IWK) <1 70 0 10

Airlines & Planes

Top Airlines
Airline Flights
per Day
Seats
per Day
  Atlas Air <1 75
NetJets <1 -
  National Airlines <1 -
  Omni Air International <1 20
Top Plane Types
Manufacturer Model Flights Seats
Boeing B747-400 0.8/day 75/day 75
Boeing B767-300 0.1/day 20/day 20.266666666666666
Cessna C68A 0.1/day - -0.13333333333333333
Embraer Phenom 300 0.1/day - -0.06666666666666667
Bombardier Challenger 600 0.0/day - -0.06666666666666667